sensor_id;sensor_type;location;lat;lon;timestamp;P1;durP1;ratioP1;P2;durP2;ratioP2
47760;SDS011;33524;55.434;38.520;2024-01-15T00:01:55;4.57;;;3.40;;
47760;SDS011;33524;55.434;38.520;2024-01-15T00:04:23;5.03;;;3.83;;
47760;SDS011;33524;55.434;38.520;2024-01-15T00:06:52;5.57;;;3.72;;
47760;SDS011;33524;55.434;38.520;2024-01-15T00:09:20;8.70;;;4.30;;
47760;SDS011;33524;55.434;38.520;2024-01-15T00:11:48;6.05;;;3.47;;
47760;SDS011;33524;55.434;38.520;2024-01-15T00:14:17;4.20;;;2.67;;
47760;SDS011;33524;55.434;38.520;2024-01-15T00:16:48;7.80;;;4.32;;
47760;SDS011;33524;55.434;38.520;2024-01-15T00:19:21;8.13;;;5.50;;
47760;SDS011;33524;55.434;38.520;2024-01-15T00:21:53;7.05;;;4.03;;
47760;SDS011;33524;55.434;38.520;2024-01-15T00:24:21;5.75;;;3.37;;
47760;SDS011;33524;55.434;38.520;2024-01-15T00:26:49;11.40;;;4.05;;
47760;SDS011;33524;55.434;38.520;2024-01-15T00:29:17;6.20;;;4.32;;
47760;SDS011;33524;55.434;38.520;2024-01-15T00:31:46;7.50;;;5.25;;
47760;SDS011;33524;55.434;38.520;2024-01-15T00:34:14;7.37;;;4.30;;
47760;SDS011;33524;55.434;38.520;2024-01-15T00:36:42;6.45;;;2.97;;
47760;SDS011;33524;55.434;38.520;2024-01-15T00:39:11;14.07;;;4.07;;
47760;SDS011;33524;55.434;38.520;2024-01-15T00:41:39;4.47;;;2.15;;
47760;SDS011;33524;55.434;38.520;2024-01-15T00:44:07;6.65;;;3.83;;
47760;SDS011;33524;55.434;38.520;2024-01-15T00:46:45;6.65;;;3.60;;
47760;SDS011;33524;55.434;38.520;2024-01-15T00:49:14;7.75;;;4.37;;
47760;SDS011;33524;55.434;38.520;2024-01-15T00:51:42;6.65;;;3.78;;
47760;SDS011;33524;55.434;38.520;2024-01-15T00:54:10;3.50;;;3.10;;
47760;SDS011;33524;55.434;38.520;2024-01-15T00:56:39;4.40;;;3.55;;
47760;SDS011;33524;55.434;38.520;2024-01-15T00:59:07;8.48;;;5.70;;
47760;SDS011;33524;55.434;38.520;2024-01-15T01:01:37;3.15;;;2.80;;
47760;SDS011;33524;55.434;38.520;2024-01-15T01:04:06;5.00;;;2.90;;
47760;SDS011;33524;55.434;38.520;2024-01-15T01:06:34;8.75;;;4.90;;
47760;SDS011;33524;55.434;38.520;2024-01-15T01:09:02;7.70;;;5.00;;
47760;SDS011;33524;55.434;38.520;2024-01-15T01:11:31;8.07;;;4.35;;
47760;SDS011;33524;55.434;38.520;2024-01-15T01:13:59;6.82;;;3.92;;
47760;SDS011;33524;55.434;38.520;2024-01-15T01:16:28;7.80;;;5.12;;
47760;SDS011;33524;55.434;38.520;2024-01-15T01:18:56;6.30;;;3.97;;
47760;SDS011;33524;55.434;38.520;2024-01-15T01:21:28;7.87;;;3.25;;
47760;SDS011;33524;55.434;38.520;2024-01-15T01:23:56;5.37;;;4.37;;
47760;SDS011;33524;55.434;38.520;2024-01-15T01:26:24;6.80;;;4.37;;
47760;SDS011;33524;55.434;38.520;2024-01-15T01:28:52;8.35;;;3.78;;
47760;SDS011;33524;55.434;38.520;2024-01-15T01:31:20;5.25;;;3.50;;
47760;SDS011;33524;55.434;38.520;2024-01-15T01:33:48;8.82;;;4.18;;
47760;SDS011;33524;55.434;38.520;2024-01-15T01:36:16;7.78;;;4.50;;
47760;SDS011;33524;55.434;38.520;2024-01-15T01:38:45;7.65;;;3.83;;
47760;SDS011;33524;55.434;38.520;2024-01-15T01:41:13;8.02;;;5.22;;
47760;SDS011;33524;55.434;38.520;2024-01-15T01:43:41;8.45;;;4.25;;
47760;SDS011;33524;55.434;38.520;2024-01-15T01:46:09;13.23;;;3.90;;
47760;SDS011;33524;55.434;38.520;2024-01-15T01:48:38;5.35;;;3.80;;
47760;SDS011;33524;55.434;38.520;2024-01-15T01:51:07;8.73;;;5.70;;
47760;SDS011;33524;55.434;38.520;2024-01-15T01:53:35;6.78;;;4.72;;
47760;SDS011;33524;55.434;38.520;2024-01-15T01:56:05;10.02;;;5.97;;
47760;SDS011;33524;55.434;38.520;2024-01-15T01:58:34;6.55;;;3.78;;
47760;SDS011;33524;55.434;38.520;2024-01-15T02:01:03;9.45;;;5.03;;
47760;SDS011;33524;55.434;38.520;2024-01-15T02:03:34;11.88;;;5.07;;
47760;SDS011;33524;55.434;38.520;2024-01-15T02:06:03;6.20;;;3.72;;
47760;SDS011;33524;55.434;38.520;2024-01-15T02:08:31;9.35;;;4.53;;
47760;SDS011;33524;55.434;38.520;2024-01-15T02:11:00;8.52;;;4.82;;
47760;SDS011;33524;55.434;38.520;2024-01-15T02:13:28;10.07;;;5.70;;
47760;SDS011;33524;55.434;38.520;2024-01-15T02:15:59;12.93;;;6.07;;
47760;SDS011;33524;55.434;38.520;2024-01-15T02:18:44;8.88;;;4.90;;
47760;SDS011;33524;55.434;38.520;2024-01-15T02:21:34;10.25;;;5.20;;
47760;SDS011;33524;55.434;38.520;2024-01-15T02:24:03;5.15;;;2.67;;
47760;SDS011;33524;55.434;38.520;2024-01-15T02:26:35;8.18;;;4.47;;
47760;SDS011;33524;55.434;38.520;2024-01-15T02:29:06;5.62;;;3.40;;
47760;SDS011;33524;55.434;38.520;2024-01-15T02:31:38;6.80;;;4.15;;
47760;SDS011;33524;55.434;38.520;2024-01-15T02:34:07;9.05;;;5.28;;
47760;SDS011;33524;55.434;38.520;2024-01-15T02:36:35;8.15;;;4.22;;
47760;SDS011;33524;55.434;38.520;2024-01-15T02:39:03;8.02;;;4.28;;
47760;SDS011;33524;55.434;38.520;2024-01-15T02:41:31;12.75;;;6.97;;
47760;SDS011;33524;55.434;38.520;2024-01-15T02:43:59;9.55;;;5.95;;
47760;SDS011;33524;55.434;38.520;2024-01-15T02:46:28;6.82;;;4.43;;
47760;SDS011;33524;55.434;38.520;2024-01-15T02:48:56;12.00;;;6.40;;
47760;SDS011;33524;55.434;38.520;2024-01-15T02:51:24;9.68;;;5.12;;
47760;SDS011;33524;55.434;38.520;2024-01-15T02:53:52;4.07;;;3.47;;
47760;SDS011;33524;55.434;38.520;2024-01-15T02:56:20;6.00;;;3.85;;
47760;SDS011;33524;55.434;38.520;2024-01-15T02:58:48;9.90;;;4.78;;
47760;SDS011;33524;55.434;38.520;2024-01-15T03:01:18;13.30;;;5.35;;
47760;SDS011;33524;55.434;38.520;2024-01-15T03:03:47;8.27;;;4.57;;
47760;SDS011;33524;55.434;38.520;2024-01-15T03:06:16;7.05;;;5.18;;
47760;SDS011;33524;55.434;38.520;2024-01-15T03:08:44;6.05;;;3.87;;
47760;SDS011;33524;55.434;38.520;2024-01-15T03:11:12;10.52;;;5.18;;
47760;SDS011;33524;55.434;38.520;2024-01-15T03:13:40;7.95;;;4.62;;
47760;SDS011;33524;55.434;38.520;2024-01-15T03:16:08;15.10;;;5.28;;
47760;SDS011;33524;55.434;38.520;2024-01-15T03:18:37;7.25;;;4.93;;
47760;SDS011;33524;55.434;38.520;2024-01-15T03:21:06;12.23;;;4.82;;
47760;SDS011;33524;55.434;38.520;2024-01-15T03:23:34;11.02;;;5.45;;
47760;SDS011;33524;55.434;38.520;2024-01-15T03:26:02;11.93;;;5.97;;
47760;SDS011;33524;55.434;38.520;2024-01-15T03:28:30;7.62;;;5.70;;
47760;SDS011;33524;55.434;38.520;2024-01-15T03:30:58;5.72;;;4.47;;
47760;SDS011;33524;55.434;38.520;2024-01-15T03:33:27;14.20;;;6.00;;
47760;SDS011;33524;55.434;38.520;2024-01-15T03:35:55;11.23;;;5.22;;
47760;SDS011;33524;55.434;38.520;2024-01-15T03:38:28;7.70;;;4.68;;
47760;SDS011;33524;55.434;38.520;2024-01-15T03:40:59;11.30;;;5.68;;
47760;SDS011;33524;55.434;38.520;2024-01-15T03:43:27;7.55;;;5.30;;
47760;SDS011;33524;55.434;38.520;2024-01-15T03:45:55;12.35;;;6.62;;
47760;SDS011;33524;55.434;38.520;2024-01-15T03:48:24;10.07;;;6.82;;
47760;SDS011;33524;55.434;38.520;2024-01-15T03:50:52;12.32;;;6.20;;
47760;SDS011;33524;55.434;38.520;2024-01-15T03:53:20;13.07;;;6.78;;
47760;SDS011;33524;55.434;38.520;2024-01-15T03:55:51;11.73;;;5.87;;
47760;SDS011;33524;55.434;38.520;2024-01-15T03:58:22;14.25;;;7.40;;
47760;SDS011;33524;55.434;38.520;2024-01-15T04:00:51;12.43;;;6.25;;
47760;SDS011;33524;55.434;38.520;2024-01-15T04:03:19;12.65;;;6.75;;
47760;SDS011;33524;55.434;38.520;2024-01-15T04:05:47;9.18;;;5.95;;
47760;SDS011;33524;55.434;38.520;2024-01-15T04:08:15;14.20;;;7.62;;
47760;SDS011;33524;55.434;38.520;2024-01-15T04:10:44;15.52;;;7.50;;
47760;SDS011;33524;55.434;38.520;2024-01-15T04:13:12;5.28;;;3.65;;
47760;SDS011;33524;55.434;38.520;2024-01-15T04:15:40;13.30;;;6.35;;
47760;SDS011;33524;55.434;38.520;2024-01-15T04:18:08;2.95;;;2.75;;
47760;SDS011;33524;55.434;38.520;2024-01-15T04:20:36;11.77;;;5.68;;
47760;SDS011;33524;55.434;38.520;2024-01-15T04:23:04;9.00;;;6.22;;
47760;SDS011;33524;55.434;38.520;2024-01-15T04:25:33;14.45;;;5.57;;
47760;SDS011;33524;55.434;38.520;2024-01-15T04:28:01;18.85;;;8.80;;
47760;SDS011;33524;55.434;38.520;2024-01-15T04:30:29;13.20;;;6.62;;
47760;SDS011;33524;55.434;38.520;2024-01-15T04:32:57;16.00;;;5.68;;
47760;SDS011;33524;55.434;38.520;2024-01-15T04:35:25;15.10;;;8.60;;
47760;SDS011;33524;55.434;38.520;2024-01-15T04:37:53;13.10;;;7.30;;
47760;SDS011;33524;55.434;38.520;2024-01-15T04:40:21;12.20;;;8.32;;
47760;SDS011;33524;55.434;38.520;2024-01-15T04:42:49;6.43;;;3.47;;
47760;SDS011;33524;55.434;38.520;2024-01-15T04:45:17;15.63;;;8.50;;
47760;SDS011;33524;55.434;38.520;2024-01-15T04:47:46;10.73;;;7.10;;
47760;SDS011;33524;55.434;38.520;2024-01-15T04:50:14;15.55;;;8.82;;
47760;SDS011;33524;55.434;38.520;2024-01-15T04:52:42;9.52;;;6.10;;
47760;SDS011;33524;55.434;38.520;2024-01-15T04:55:11;15.95;;;7.50;;
47760;SDS011;33524;55.434;38.520;2024-01-15T04:57:39;13.55;;;9.05;;
47760;SDS011;33524;55.434;38.520;2024-01-15T05:00:07;12.23;;;6.37;;
47760;SDS011;33524;55.434;38.520;2024-01-15T05:02:36;14.85;;;7.68;;
47760;SDS011;33524;55.434;38.520;2024-01-15T05:05:04;13.15;;;8.95;;
47760;SDS011;33524;55.434;38.520;2024-01-15T05:07:32;12.37;;;7.28;;
47760;SDS011;33524;55.434;38.520;2024-01-15T05:10:00;12.73;;;7.07;;
47760;SDS011;33524;55.434;38.520;2024-01-15T05:12:33;11.40;;;7.28;;
47760;SDS011;33524;55.434;38.520;2024-01-15T05:15:02;13.90;;;8.13;;
47760;SDS011;33524;55.434;38.520;2024-01-15T05:17:31;11.57;;;6.57;;
47760;SDS011;33524;55.434;38.520;2024-01-15T05:19:59;13.88;;;7.55;;
47760;SDS011;33524;55.434;38.520;2024-01-15T05:22:28;13.38;;;7.82;;
47760;SDS011;33524;55.434;38.520;2024-01-15T05:24:56;10.52;;;5.82;;
47760;SDS011;33524;55.434;38.520;2024-01-15T05:27:24;15.60;;;7.40;;
47760;SDS011;33524;55.434;38.520;2024-01-15T05:29:56;16.27;;;7.95;;
47760;SDS011;33524;55.434;38.520;2024-01-15T05:32:24;12.15;;;5.93;;
47760;SDS011;33524;55.434;38.520;2024-01-15T05:34:52;15.05;;;9.50;;
47760;SDS011;33524;55.434;38.520;2024-01-15T05:37:20;8.90;;;5.82;;
47760;SDS011;33524;55.434;38.520;2024-01-15T05:39:48;13.50;;;6.80;;
47760;SDS011;33524;55.434;38.520;2024-01-15T05:42:16;16.15;;;7.18;;
47760;SDS011;33524;55.434;38.520;2024-01-15T05:44:45;15.07;;;6.43;;
47760;SDS011;33524;55.434;38.520;2024-01-15T05:47:13;11.88;;;7.30;;
47760;SDS011;33524;55.434;38.520;2024-01-15T05:49:41;13.15;;;7.57;;
47760;SDS011;33524;55.434;38.520;2024-01-15T05:52:10;16.52;;;9.07;;
47760;SDS011;33524;55.434;38.520;2024-01-15T05:54:38;9.02;;;6.57;;
47760;SDS011;33524;55.434;38.520;2024-01-15T05:57:09;13.50;;;6.87;;
47760;SDS011;33524;55.434;38.520;2024-01-15T05:59:37;4.53;;;3.85;;
47760;SDS011;33524;55.434;38.520;2024-01-15T06:02:05;15.98;;;7.97;;
47760;SDS011;33524;55.434;38.520;2024-01-15T06:04:34;23.27;;;7.87;;
47760;SDS011;33524;55.434;38.520;2024-01-15T06:07:02;18.90;;;7.78;;
47760;SDS011;33524;55.434;38.520;2024-01-15T06:09:30;16.10;;;8.43;;
47760;SDS011;33524;55.434;38.520;2024-01-15T06:11:59;20.25;;;7.72;;
47760;SDS011;33524;55.434;38.520;2024-01-15T06:14:27;18.02;;;8.93;;
47760;SDS011;33524;55.434;38.520;2024-01-15T06:16:55;14.18;;;6.03;;
47760;SDS011;33524;55.434;38.520;2024-01-15T06:19:23;20.40;;;8.75;;
47760;SDS011;33524;55.434;38.520;2024-01-15T06:21:51;15.57;;;9.77;;
47760;SDS011;33524;55.434;38.520;2024-01-15T06:24:19;15.18;;;9.65;;
47760;SDS011;33524;55.434;38.520;2024-01-15T06:26:48;23.02;;;9.07;;
47760;SDS011;33524;55.434;38.520;2024-01-15T06:29:16;17.85;;;7.70;;
47760;SDS011;33524;55.434;38.520;2024-01-15T06:31:44;13.85;;;7.97;;
47760;SDS011;33524;55.434;38.520;2024-01-15T06:34:12;16.62;;;7.32;;
47760;SDS011;33524;55.434;38.520;2024-01-15T06:36:40;15.27;;;7.93;;
47760;SDS011;33524;55.434;38.520;2024-01-15T06:39:08;21.25;;;9.48;;
47760;SDS011;33524;55.434;38.520;2024-01-15T06:41:37;11.63;;;8.30;;
47760;SDS011;33524;55.434;38.520;2024-01-15T06:44:12;16.40;;;8.57;;
47760;SDS011;33524;55.434;38.520;2024-01-15T06:46:43;13.02;;;8.25;;
47760;SDS011;33524;55.434;38.520;2024-01-15T06:49:12;16.00;;;9.30;;
47760;SDS011;33524;55.434;38.520;2024-01-15T06:51:41;13.93;;;8.18;;
47760;SDS011;33524;55.434;38.520;2024-01-15T06:54:11;15.88;;;7.93;;
47760;SDS011;33524;55.434;38.520;2024-01-15T06:56:39;14.25;;;7.68;;
47760;SDS011;33524;55.434;38.520;2024-01-15T06:59:07;14.48;;;7.65;;
47760;SDS011;33524;55.434;38.520;2024-01-15T07:01:36;12.13;;;7.00;;
47760;SDS011;33524;55.434;38.520;2024-01-15T07:04:05;15.18;;;7.82;;
47760;SDS011;33524;55.434;38.520;2024-01-15T07:06:33;21.27;;;9.00;;
47760;SDS011;33524;55.434;38.520;2024-01-15T07:09:01;25.37;;;9.52;;
47760;SDS011;33524;55.434;38.520;2024-01-15T07:11:29;19.15;;;10.13;;
47760;SDS011;33524;55.434;38.520;2024-01-15T07:14:00;16.02;;;9.82;;
47760;SDS011;33524;55.434;38.520;2024-01-15T07:16:28;17.58;;;8.98;;
47760;SDS011;33524;55.434;38.520;2024-01-15T07:19:04;20.42;;;9.63;;
47760;SDS011;33524;55.434;38.520;2024-01-15T07:21:33;15.52;;;7.97;;
47760;SDS011;33524;55.434;38.520;2024-01-15T07:24:01;8.73;;;5.10;;
47760;SDS011;33524;55.434;38.520;2024-01-15T07:26:30;18.25;;;7.22;;
47760;SDS011;33524;55.434;38.520;2024-01-15T07:28:58;19.73;;;7.97;;
47760;SDS011;33524;55.434;38.520;2024-01-15T07:31:26;14.80;;;9.40;;
47760;SDS011;33524;55.434;38.520;2024-01-15T07:33:55;12.02;;;5.15;;
47760;SDS011;33524;55.434;38.520;2024-01-15T07:36:23;5.82;;;4.15;;
47760;SDS011;33524;55.434;38.520;2024-01-15T07:38:51;12.32;;;7.80;;
47760;SDS011;33524;55.434;38.520;2024-01-15T07:41:20;10.98;;;6.03;;
47760;SDS011;33524;55.434;38.520;2024-01-15T07:43:48;14.23;;;8.20;;
47760;SDS011;33524;55.434;38.520;2024-01-15T07:46:16;11.00;;;7.20;;
47760;SDS011;33524;55.434;38.520;2024-01-15T07:48:45;14.45;;;7.95;;
47760;SDS011;33524;55.434;38.520;2024-01-15T07:51:16;12.75;;;7.93;;
47760;SDS011;33524;55.434;38.520;2024-01-15T07:53:44;13.88;;;7.07;;
47760;SDS011;33524;55.434;38.520;2024-01-15T07:56:12;12.82;;;6.00;;
47760;SDS011;33524;55.434;38.520;2024-01-15T07:58:40;14.02;;;7.62;;
47760;SDS011;33524;55.434;38.520;2024-01-15T08:01:08;11.65;;;6.53;;
47760;SDS011;33524;55.434;38.520;2024-01-15T08:03:37;14.43;;;8.18;;
47760;SDS011;33524;55.434;38.520;2024-01-15T08:06:06;20.45;;;9.27;;
47760;SDS011;33524;55.434;38.520;2024-01-15T08:08:37;13.88;;;7.45;;
47760;SDS011;33524;55.434;38.520;2024-01-15T08:11:05;16.23;;;10.02;;
47760;SDS011;33524;55.434;38.520;2024-01-15T08:13:33;14.38;;;7.18;;
47760;SDS011;33524;55.434;38.520;2024-01-15T08:16:02;14.10;;;9.00;;
47760;SDS011;33524;55.434;38.520;2024-01-15T08:18:30;13.88;;;8.05;;
47760;SDS011;33524;55.434;38.520;2024-01-15T08:20:58;15.85;;;8.07;;
47760;SDS011;33524;55.434;38.520;2024-01-15T08:23:26;14.60;;;7.97;;
47760;SDS011;33524;55.434;38.520;2024-01-15T08:25:58;15.73;;;8.30;;
47760;SDS011;33524;55.434;38.520;2024-01-15T08:28:27;14.68;;;8.80;;
47760;SDS011;33524;55.434;38.520;2024-01-15T08:30:55;23.15;;;9.77;;
47760;SDS011;33524;55.434;38.520;2024-01-15T08:33:25;16.05;;;8.15;;
47760;SDS011;33524;55.434;38.520;2024-01-15T08:35:53;16.48;;;9.65;;
47760;SDS011;33524;55.434;38.520;2024-01-15T08:38:22;13.27;;;8.30;;
47760;SDS011;33524;55.434;38.520;2024-01-15T08:40:50;15.57;;;8.95;;
47760;SDS011;33524;55.434;38.520;2024-01-15T08:43:19;13.85;;;5.07;;
47760;SDS011;33524;55.434;38.520;2024-01-15T08:45:47;17.05;;;9.48;;
47760;SDS011;33524;55.434;38.520;2024-01-15T08:48:15;14.57;;;8.93;;
47760;SDS011;33524;55.434;38.520;2024-01-15T08:50:44;16.10;;;7.72;;
47760;SDS011;33524;55.434;38.520;2024-01-15T08:53:18;18.62;;;10.73;;
47760;SDS011;33524;55.434;38.520;2024-01-15T08:55:47;21.62;;;9.75;;
47760;SDS011;33524;55.434;38.520;2024-01-15T08:58:15;16.20;;;7.90;;
47760;SDS011;33524;55.434;38.520;2024-01-15T09:00:43;20.60;;;10.77;;
47760;SDS011;33524;55.434;38.520;2024-01-15T09:03:12;19.92;;;9.20;;
47760;SDS011;33524;55.434;38.520;2024-01-15T09:05:40;19.17;;;9.93;;
47760;SDS011;33524;55.434;38.520;2024-01-15T09:08:08;16.55;;;9.60;;
47760;SDS011;33524;55.434;38.520;2024-01-15T09:10:37;17.50;;;9.63;;
47760;SDS011;33524;55.434;38.520;2024-01-15T09:13:08;18.15;;;9.57;;
47760;SDS011;33524;55.434;38.520;2024-01-15T09:15:37;15.02;;;8.57;;
47760;SDS011;33524;55.434;38.520;2024-01-15T09:18:05;16.58;;;9.23;;
47760;SDS011;33524;55.434;38.520;2024-01-15T09:20:35;14.13;;;8.00;;
47760;SDS011;33524;55.434;38.520;2024-01-15T09:23:03;8.60;;;5.97;;
47760;SDS011;33524;55.434;38.520;2024-01-15T09:25:33;10.63;;;7.47;;
47760;SDS011;33524;55.434;38.520;2024-01-15T09:28:01;16.87;;;10.45;;
47760;SDS011;33524;55.434;38.520;2024-01-15T09:30:30;14.13;;;8.52;;
47760;SDS011;33524;55.434;38.520;2024-01-15T09:32:59;17.80;;;9.15;;
47760;SDS011;33524;55.434;38.520;2024-01-15T09:35:27;18.00;;;10.40;;
47760;SDS011;33524;55.434;38.520;2024-01-15T09:37:55;17.92;;;9.80;;
47760;SDS011;33524;55.434;38.520;2024-01-15T09:40:23;18.33;;;10.23;;
47760;SDS011;33524;55.434;38.520;2024-01-15T09:42:52;16.48;;;10.32;;
47760;SDS011;33524;55.434;38.520;2024-01-15T09:45:21;14.73;;;8.85;;
47760;SDS011;33524;55.434;38.520;2024-01-15T09:47:49;20.02;;;11.70;;
47760;SDS011;33524;55.434;38.520;2024-01-15T09:50:17;18.83;;;10.45;;
47760;SDS011;33524;55.434;38.520;2024-01-15T09:52:46;19.23;;;10.80;;
47760;SDS011;33524;55.434;38.520;2024-01-15T09:55:15;20.77;;;11.50;;
47760;SDS011;33524;55.434;38.520;2024-01-15T09:57:45;19.17;;;11.05;;
47760;SDS011;33524;55.434;38.520;2024-01-15T10:00:19;20.40;;;10.75;;
47760;SDS011;33524;55.434;38.520;2024-01-15T10:02:48;24.17;;;14.13;;
47760;SDS011;33524;55.434;38.520;2024-01-15T10:05:16;23.05;;;12.37;;
47760;SDS011;33524;55.434;38.520;2024-01-15T10:07:45;20.17;;;11.30;;
47760;SDS011;33524;55.434;38.520;2024-01-15T10:10:16;17.77;;;9.50;;
47760;SDS011;33524;55.434;38.520;2024-01-15T10:12:44;19.12;;;11.65;;
47760;SDS011;33524;55.434;38.520;2024-01-15T10:15:12;21.12;;;12.65;;
47760;SDS011;33524;55.434;38.520;2024-01-15T10:17:41;24.67;;;13.02;;
47760;SDS011;33524;55.434;38.520;2024-01-15T10:20:10;32.35;;;13.80;;
47760;SDS011;33524;55.434;38.520;2024-01-15T10:22:40;20.80;;;12.40;;
47760;SDS011;33524;55.434;38.520;2024-01-15T10:25:10;24.45;;;12.88;;
47760;SDS011;33524;55.434;38.520;2024-01-15T10:27:39;29.65;;;13.38;;
47760;SDS011;33524;55.434;38.520;2024-01-15T10:30:09;25.37;;;13.45;;
47760;SDS011;33524;55.434;38.520;2024-01-15T10:32:39;22.23;;;11.75;;
47760;SDS011;33524;55.434;38.520;2024-01-15T10:35:08;21.87;;;11.00;;
47760;SDS011;33524;55.434;38.520;2024-01-15T10:37:37;24.23;;;11.00;;
47760;SDS011;33524;55.434;38.520;2024-01-15T10:40:05;21.95;;;11.73;;
47760;SDS011;33524;55.434;38.520;2024-01-15T10:42:34;19.52;;;11.80;;
47760;SDS011;33524;55.434;38.520;2024-01-15T10:45:03;16.52;;;10.48;;
47760;SDS011;33524;55.434;38.520;2024-01-15T10:47:31;21.45;;;13.20;;
47760;SDS011;33524;55.434;38.520;2024-01-15T10:49:59;21.20;;;11.57;;
47760;SDS011;33524;55.434;38.520;2024-01-15T10:52:33;23.98;;;14.10;;
47760;SDS011;33524;55.434;38.520;2024-01-15T10:55:06;18.75;;;10.98;;
47760;SDS011;33524;55.434;38.520;2024-01-15T10:57:46;21.85;;;11.95;;
47760;SDS011;33524;55.434;38.520;2024-01-15T11:00:19;19.80;;;12.32;;
47760;SDS011;33524;55.434;38.520;2024-01-15T11:02:49;18.90;;;11.25;;
47760;SDS011;33524;55.434;38.520;2024-01-15T11:05:18;23.42;;;12.98;;
47760;SDS011;33524;55.434;38.520;2024-01-15T11:07:59;20.27;;;13.07;;
47760;SDS011;33524;55.434;38.520;2024-01-15T11:10:38;17.85;;;11.65;;
47760;SDS011;33524;55.434;38.520;2024-01-15T11:13:13;20.75;;;11.80;;
47760;SDS011;33524;55.434;38.520;2024-01-15T11:21:29;27.02;;;14.43;;
47760;SDS011;33524;55.434;38.520;2024-01-15T11:23:59;22.85;;;13.05;;
47760;SDS011;33524;55.434;38.520;2024-01-15T11:29:06;27.25;;;15.48;;
47760;SDS011;33524;55.434;38.520;2024-01-15T11:34:09;23.98;;;12.15;;
47760;SDS011;33524;55.434;38.520;2024-01-15T11:39:47;25.25;;;13.32;;
47760;SDS011;33524;55.434;38.520;2024-01-15T11:42:10;23.15;;;11.40;;
47760;SDS011;33524;55.434;38.520;2024-01-15T11:44:40;24.98;;;12.27;;
47760;SDS011;33524;55.434;38.520;2024-01-15T11:47:08;17.20;;;10.57;;
47760;SDS011;33524;55.434;38.520;2024-01-15T11:52:34;21.95;;;11.80;;
47760;SDS011;33524;55.434;38.520;2024-01-15T11:57:54;20.77;;;12.40;;
47760;SDS011;33524;55.434;38.520;2024-01-15T12:00:23;19.20;;;10.82;;
47760;SDS011;33524;55.434;38.520;2024-01-15T12:02:52;26.40;;;13.32;;
47760;SDS011;33524;55.434;38.520;2024-01-15T12:05:20;23.25;;;12.37;;
47760;SDS011;33524;55.434;38.520;2024-01-15T12:07:49;21.48;;;12.68;;
47760;SDS011;33524;55.434;38.520;2024-01-15T12:10:18;23.38;;;13.38;;
47760;SDS011;33524;55.434;38.520;2024-01-15T12:13:02;18.90;;;12.40;;
47760;SDS011;33524;55.434;38.520;2024-01-15T12:15:40;29.42;;;14.48;;
47760;SDS011;33524;55.434;38.520;2024-01-15T12:18:10;25.98;;;13.07;;
47760;SDS011;33524;55.434;38.520;2024-01-15T12:20:44;20.95;;;13.52;;
47760;SDS011;33524;55.434;38.520;2024-01-15T12:23:18;25.65;;;13.45;;
47760;SDS011;33524;55.434;38.520;2024-01-15T12:25:46;23.25;;;13.77;;
47760;SDS011;33524;55.434;38.520;2024-01-15T12:28:15;28.85;;;14.40;;
47760;SDS011;33524;55.434;38.520;2024-01-15T12:30:46;25.40;;;15.25;;
47760;SDS011;33524;55.434;38.520;2024-01-15T12:33:18;28.05;;;15.30;;
47760;SDS011;33524;55.434;38.520;2024-01-15T12:35:48;32.40;;;15.95;;
47760;SDS011;33524;55.434;38.520;2024-01-15T12:38:18;28.02;;;15.77;;
47760;SDS011;33524;55.434;38.520;2024-01-15T12:40:50;24.45;;;14.50;;
47760;SDS011;33524;55.434;38.520;2024-01-15T12:43:18;26.42;;;14.50;;
47760;SDS011;33524;55.434;38.520;2024-01-15T12:45:53;25.65;;;14.25;;
47760;SDS011;33524;55.434;38.520;2024-01-15T12:48:21;28.60;;;14.63;;
47760;SDS011;33524;55.434;38.520;2024-01-15T12:50:51;23.25;;;13.52;;
47760;SDS011;33524;55.434;38.520;2024-01-15T12:53:20;22.75;;;14.50;;
47760;SDS011;33524;55.434;38.520;2024-01-15T12:55:48;24.50;;;14.50;;
47760;SDS011;33524;55.434;38.520;2024-01-15T12:58:16;26.73;;;15.00;;
47760;SDS011;33524;55.434;38.520;2024-01-15T13:00:47;22.15;;;12.82;;
47760;SDS011;33524;55.434;38.520;2024-01-15T13:03:16;25.30;;;12.40;;
47760;SDS011;33524;55.434;38.520;2024-01-15T13:05:44;25.58;;;14.05;;
47760;SDS011;33524;55.434;38.520;2024-01-15T13:08:19;29.00;;;17.17;;
47760;SDS011;33524;55.434;38.520;2024-01-15T13:10:47;23.45;;;13.80;;
47760;SDS011;33524;55.434;38.520;2024-01-15T13:13:16;27.48;;;13.60;;
47760;SDS011;33524;55.434;38.520;2024-01-15T13:15:44;26.77;;;15.23;;
47760;SDS011;33524;55.434;38.520;2024-01-15T13:18:12;30.83;;;15.43;;
47760;SDS011;33524;55.434;38.520;2024-01-15T13:20:41;30.52;;;15.57;;
47760;SDS011;33524;55.434;38.520;2024-01-15T13:23:09;24.30;;;12.05;;
47760;SDS011;33524;55.434;38.520;2024-01-15T13:25:37;28.87;;;14.65;;
47760;SDS011;33524;55.434;38.520;2024-01-15T13:28:06;25.77;;;14.20;;
47760;SDS011;33524;55.434;38.520;2024-01-15T13:30:37;30.52;;;14.95;;
47760;SDS011;33524;55.434;38.520;2024-01-15T13:33:06;28.85;;;15.00;;
47760;SDS011;33524;55.434;38.520;2024-01-15T13:35:36;30.83;;;16.15;;
47760;SDS011;33524;55.434;38.520;2024-01-15T13:38:04;27.77;;;16.23;;
47760;SDS011;33524;55.434;38.520;2024-01-15T13:40:38;27.17;;;15.82;;
47760;SDS011;33524;55.434;38.520;2024-01-15T13:43:06;26.77;;;14.15;;
47760;SDS011;33524;55.434;38.520;2024-01-15T13:45:36;24.98;;;16.05;;
47760;SDS011;33524;55.434;38.520;2024-01-15T13:48:05;29.63;;;16.10;;
47760;SDS011;33524;55.434;38.520;2024-01-15T13:50:36;28.45;;;14.68;;
47760;SDS011;33524;55.434;38.520;2024-01-15T13:53:07;35.67;;;15.50;;
47760;SDS011;33524;55.434;38.520;2024-01-15T13:55:41;27.95;;;14.50;;
47760;SDS011;33524;55.434;38.520;2024-01-15T13:58:09;32.65;;;17.87;;
47760;SDS011;33524;55.434;38.520;2024-01-15T14:00:37;31.17;;;16.90;;
47760;SDS011;33524;55.434;38.520;2024-01-15T14:03:19;31.08;;;18.60;;
47760;SDS011;33524;55.434;38.520;2024-01-15T14:05:47;35.58;;;18.30;;
47760;SDS011;33524;55.434;38.520;2024-01-15T14:08:19;28.87;;;17.08;;
47760;SDS011;33524;55.434;38.520;2024-01-15T14:10:47;30.10;;;15.70;;
47760;SDS011;33524;55.434;38.520;2024-01-15T14:13:15;29.70;;;16.48;;
47760;SDS011;33524;55.434;38.520;2024-01-15T14:15:43;32.58;;;17.27;;
47760;SDS011;33524;55.434;38.520;2024-01-15T14:18:13;31.58;;;16.58;;
47760;SDS011;33524;55.434;38.520;2024-01-15T14:20:45;30.02;;;14.93;;
47760;SDS011;33524;55.434;38.520;2024-01-15T14:23:13;30.88;;;18.12;;
47760;SDS011;33524;55.434;38.520;2024-01-15T14:25:41;36.38;;;17.65;;
47760;SDS011;33524;55.434;38.520;2024-01-15T14:28:09;33.45;;;17.30;;
47760;SDS011;33524;55.434;38.520;2024-01-15T14:30:38;29.80;;;15.82;;
47760;SDS011;33524;55.434;38.520;2024-01-15T14:33:06;35.00;;;18.45;;
47760;SDS011;33524;55.434;38.520;2024-01-15T14:35:40;30.17;;;17.87;;
47760;SDS011;33524;55.434;38.520;2024-01-15T14:38:08;30.17;;;16.80;;
47760;SDS011;33524;55.434;38.520;2024-01-15T14:40:36;25.08;;;14.35;;
47760;SDS011;33524;55.434;38.520;2024-01-15T14:43:05;37.33;;;17.62;;
47760;SDS011;33524;55.434;38.520;2024-01-15T14:45:33;29.17;;;17.25;;
47760;SDS011;33524;55.434;38.520;2024-01-15T14:48:04;31.40;;;17.62;;
47760;SDS011;33524;55.434;38.520;2024-01-15T14:50:33;30.58;;;16.60;;
47760;SDS011;33524;55.434;38.520;2024-01-15T14:53:01;37.20;;;17.40;;